Time;durP1;ratioP1;P1;durP2;ratioP2;P2;SDS_P1;SDS_P2;PMS_P1;PMS_P2;Temp;Humidity;BMP_temperature;BMP_pressure;BME280_temperature;BME280_humidity;BME280_pressure;Samples;Min_cycle;Max_cycle;Signal;HPM_P1;HPM_P2
2021/06/10 00:01:33;;;;;;;24.53;11.63;;;;;;;;;;4996510;28;20495;-59
2021/06/10 00:04:00;;;;;;;12.13;7.93;;;;;;;;;;4996556;28;20024;-60
2021/06/10 00:06:28;;;;;;;11.70;7.90;;;;;;;;;;4995490;28;20121;-60
2021/06/10 00:08:56;;;;;;;9.77;7.77;;;;;;;;;;4996200;28;20492;-58
2021/06/10 00:11:23;;;;;;;12.97;7.07;;;;;;;;;;4996286;28;20520;-58
2021/06/10 00:13:51;;;;;;;8.70;5.93;;;;;;;;;;4996298;28;20035;-59
2021/06/10 00:16:18;;;;;;;9.00;5.63;;;;;;;;;;4996272;28;20030;-58
2021/06/10 00:18:49;;;;;;;7.30;6.00;;;;;;;;;;4996280;28;20548;-59
2021/06/10 00:21:17;;;;;;;8.20;6.23;;;;;;;;;;4996202;28;20358;-59
2021/06/10 00:23:44;;;;;;;7.57;5.70;;;;;;;;;;4978604;28;20039;-59
2021/06/10 00:26:11;;;;;;;8.57;6.10;;;;;;;;;;4996154;28;20461;-58
2021/06/10 00:28:38;;;;;;;8.10;5.37;;;;;;;;;;4996138;28;20465;-58
2021/06/10 00:31:06;;;;;;;10.00;5.63;;;;;;;;;;4995905;28;20457;-58
2021/06/10 00:33:34;;;;;;;7.43;5.53;;;;;;;;;;4994829;28;20469;-58
2021/06/10 00:36:01;;;;;;;12.20;5.70;;;;;;;;;;4995773;28;20496;-58
2021/06/10 00:38:28;;;;;;;8.63;5.80;;;;;;;;;;4995882;28;20027;-58
2021/06/10 00:40:55;;;;;;;9.20;5.53;;;;;;;;;;4995715;28;20026;-59
2021/06/10 00:43:22;;;;;;;6.90;5.63;;;;;;;;;;4995863;28;20480;-58
2021/06/10 00:45:49;;;;;;;7.03;5.47;;;;;;;;;;4995634;28;20646;-58
2021/06/10 00:48:16;;;;;;;8.40;5.70;;;;;;;;;;4995884;28;20458;-58
2021/06/10 00:50:45;;;;;;;15.93;6.60;;;;;;;;;;4995471;28;20569;-58
2021/06/10 00:53:21;;;;;;;11.67;8.63;;;;;;;;;;4995502;28;20466;-58
2021/06/10 00:55:52;;;;;;;9.47;6.27;;;;;;;;;;4996999;28;20646;-59
2021/06/10 00:58:20;;;;;;;8.63;5.47;;;;;;;;;;4995391;28;20062;-58
2021/06/10 01:00:49;;;;;;;6.87;5.60;;;;;;;;;;4995442;28;20027;-58
2021/06/10 01:03:17;;;;;;;8.87;6.10;;;;;;;;;;4995611;28;20473;-58
2021/06/10 01:05:47;;;;;;;10.87;6.73;;;;;;;;;;4995214;28;20033;-58
2021/06/10 01:08:33;;;;;;;15.23;8.80;;;;;;;;;;4995281;28;20544;-57
2021/06/10 01:11:19;;;;;;;14.07;7.60;;;;;;;;;;4994884;28;20481;-58
2021/06/10 01:14:22;;;;;;;12.37;8.00;;;;;;;;;;4994931;28;20497;-57
2021/06/10 01:17:16;;;;;;;10.77;7.70;;;;;;;;;;4896865;29;20484;-57
2021/06/10 01:20:14;;;;;;;10.47;7.90;;;;;;;;;;4896854;29;20033;-57
2021/06/10 01:22:55;;;;;;;14.90;8.77;;;;;;;;;;4897173;29;20484;-57
2021/06/10 01:25:33;;;;;;;12.10;8.90;;;;;;;;;;4961588;28;20490;-57
2021/06/10 01:28:20;;;;;;;14.47;9.83;;;;;;;;;;4993995;28;20520;-59
2021/06/10 01:30:52;;;;;;;14.27;9.60;;;;;;;;;;4994657;28;20497;-58
2021/06/10 01:33:31;;;;;;;12.23;9.07;;;;;;;;;;4994718;28;20548;-58
2021/06/10 01:36:10;;;;;;;11.00;8.87;;;;;;;;;;4994614;28;20541;-57
2021/06/10 01:38:40;;;;;;;12.83;8.73;;;;;;;;;;4994228;28;20481;-58
2021/06/10 01:41:11;;;;;;;11.63;9.70;;;;;;;;;;4993889;28;20038;-58
2021/06/10 01:43:40;;;;;;;16.03;9.60;;;;;;;;;;4991269;28;20544;-58
2021/06/10 01:46:11;;;;;;;13.00;8.70;;;;;;;;;;4993300;28;20589;-58
2021/06/10 01:48:51;;;;;;;43.57;30.17;;;;;;;;;;4994530;28;20051;-59
2021/06/10 01:51:25;;;;;;;29.93;17.47;;;;;;;;;;4994387;28;20492;-59
2021/06/10 01:53:53;;;;;;;14.73;10.10;;;;;;;;;;4992454;28;20620;-59
2021/06/10 01:56:22;;;;;;;18.33;10.80;;;;;;;;;;4995456;28;20528;-58
2021/06/10 01:59:07;;;;;;;13.40;9.20;;;;;;;;;;4993962;28;20497;-59
2021/06/10 02:01:35;;;;;;;14.73;8.70;;;;;;;;;;4994163;28;20544;-59
2021/06/10 02:04:05;;;;;;;14.93;8.43;;;;;;;;;;4976861;28;20485;-57
2021/06/10 02:06:37;;;;;;;12.53;7.93;;;;;;;;;;4992833;28;20493;-57
2021/06/10 02:09:07;;;;;;;14.47;7.33;;;;;;;;;;4994050;28;20470;-57
2021/06/10 02:11:36;;;;;;;11.17;8.20;;;;;;;;;;4984359;28;20489;-58
2021/06/10 02:14:04;;;;;;;14.03;9.80;;;;;;;;;;4993778;28;20498;-57
2021/06/10 02:16:34;;;;;;;9.97;7.60;;;;;;;;;;4993840;28;20477;-58
2021/06/10 02:19:02;;;;;;;10.47;6.70;;;;;;;;;;4993795;28;20030;-58
2021/06/10 02:21:41;;;;;;;9.23;6.07;;;;;;;;;;4993852;28;20536;-59
2021/06/10 02:24:13;;;;;;;20.40;5.60;;;;;;;;;;4993787;28;20033;-59
2021/06/10 02:26:41;;;;;;;8.23;5.83;;;;;;;;;;4992998;28;20485;-57
2021/06/10 02:29:08;;;;;;;7.43;5.93;;;;;;;;;;4992915;28;20478;-58
2021/06/10 02:31:36;;;;;;;12.83;7.40;;;;;;;;;;4993711;28;20093;-57
2021/06/10 02:34:12;;;;;;;14.47;7.47;;;;;;;;;;4992936;28;20489;-58
2021/06/10 02:36:41;;;;;;;13.97;8.53;;;;;;;;;;4993465;28;20584;-59
2021/06/10 02:39:10;;;;;;;11.27;7.93;;;;;;;;;;4993952;28;20488;-58
2021/06/10 02:41:39;;;;;;;14.70;8.23;;;;;;;;;;4993472;28;20465;-58
2021/06/10 02:44:07;;;;;;;13.03;8.50;;;;;;;;;;4993428;28;20507;-59
2021/06/10 02:46:35;;;;;;;10.00;7.60;;;;;;;;;;4993748;28;20461;-59
2021/06/10 02:49:03;;;;;;;9.13;6.47;;;;;;;;;;4993535;28;20106;-58
2021/06/10 02:51:31;;;;;;;10.73;6.77;;;;;;;;;;4993463;28;20586;-58
2021/06/10 02:53:59;;;;;;;10.70;6.87;;;;;;;;;;4975528;28;20541;-58
2021/06/10 02:56:27;;;;;;;11.07;6.53;;;;;;;;;;4995209;28;20093;-58
2021/06/10 02:58:57;;;;;;;6.57;4.53;;;;;;;;;;4975426;28;20042;-58
2021/06/10 03:01:25;;;;;;;12.87;4.73;;;;;;;;;;4993308;28;20022;-58
2021/06/10 03:03:52;;;;;;;10.93;4.67;;;;;;;;;;4992546;28;20516;-58
2021/06/10 03:06:22;;;;;;;9.10;4.40;;;;;;;;;;4993263;28;20022;-58
2021/06/10 03:08:53;;;;;;;5.43;3.77;;;;;;;;;;4993358;28;20494;-58
2021/06/10 03:11:23;;;;;;;10.30;3.43;;;;;;;;;;4993280;28;20473;-58
2021/06/10 03:13:52;;;;;;;6.87;3.23;;;;;;;;;;4993123;28;20481;-58
2021/06/10 03:16:20;;;;;;;5.07;2.67;;;;;;;;;;4993222;28;20027;-58
2021/06/10 03:18:47;;;;;;;4.97;2.90;;;;;;;;;;4993180;28;20481;-58
2021/06/10 03:21:15;;;;;;;7.20;2.73;;;;;;;;;;4992220;28;20178;-58
2021/06/10 03:23:42;;;;;;;6.13;3.40;;;;;;;;;;4993083;28;20485;-58
2021/06/10 03:26:10;;;;;;;6.40;3.40;;;;;;;;;;4993362;28;20469;-58
2021/06/10 03:28:37;;;;;;;8.07;3.03;;;;;;;;;;4993478;28;20493;-58
2021/06/10 03:31:06;;;;;;;7.70;4.17;;;;;;;;;;4993109;28;20026;-58
2021/06/10 03:33:33;;;;;;;7.70;3.07;;;;;;;;;;4993140;28;20041;-58
2021/06/10 03:36:00;;;;;;;7.57;3.10;;;;;;;;;;4993296;28;20470;-58
2021/06/10 03:38:28;;;;;;;6.80;2.70;;;;;;;;;;4992922;28;20500;-58
2021/06/10 03:40:56;;;;;;;9.50;3.13;;;;;;;;;;4992204;28;20046;-58
2021/06/10 03:43:23;;;;;;;7.43;2.60;;;;;;;;;;4992089;28;20117;-58
2021/06/10 03:45:51;;;;;;;8.23;3.47;;;;;;;;;;4992290;28;20481;-58
2021/06/10 03:48:18;;;;;;;9.77;3.00;;;;;;;;;;4992880;28;20517;-58
2021/06/10 03:50:45;;;;;;;5.03;3.13;;;;;;;;;;4992842;28;20445;-58
2021/06/10 03:53:12;;;;;;;8.30;2.93;;;;;;;;;;4993169;28;20532;-58
2021/06/10 03:55:41;;;;;;;4.93;2.83;;;;;;;;;;4992845;28;20482;-58
2021/06/10 03:58:08;;;;;;;5.70;2.70;;;;;;;;;;4994522;28;20046;-58
2021/06/10 04:00:35;;;;;;;5.73;2.90;;;;;;;;;;4992940;28;20035;-58
2021/06/10 04:03:04;;;;;;;4.87;2.87;;;;;;;;;;4992739;28;20469;-58
2021/06/10 04:05:32;;;;;;;5.43;3.00;;;;;;;;;;4994109;28;20469;-58
2021/06/10 04:07:59;;;;;;;7.47;2.63;;;;;;;;;;4979368;28;20474;-58
2021/06/10 04:10:27;;;;;;;4.43;2.97;;;;;;;;;;4996197;28;20478;-58
2021/06/10 04:12:54;;;;;;;6.17;3.00;;;;;;;;;;4996421;28;20121;-58
2021/06/10 04:15:21;;;;;;;4.00;2.57;;;;;;;;;;4996226;28;20025;-58
2021/06/10 04:17:48;;;;;;;5.23;2.60;;;;;;;;;;4996366;28;20549;-58
2021/06/10 04:20:19;;;;;;;5.17;2.57;;;;;;;;;;4996061;28;20465;-58
2021/06/10 04:22:46;;;;;;;4.90;3.07;;;;;;;;;;4996012;28;20054;-58
2021/06/10 04:25:14;;;;;;;5.13;2.70;;;;;;;;;;4995968;28;20469;-58
2021/06/10 04:27:41;;;;;;;4.03;2.60;;;;;;;;;;4996114;28;20032;-58
2021/06/10 04:30:11;;;;;;;4.87;2.60;;;;;;;;;;4995737;28;20504;-58
2021/06/10 04:32:38;;;;;;;5.10;2.57;;;;;;;;;;4995748;28;20470;-58
2021/06/10 04:35:07;;;;;;;6.30;2.60;;;;;;;;;;4995782;28;20481;-58
2021/06/10 04:37:34;;;;;;;9.53;2.67;;;;;;;;;;4995856;28;20014;-58
2021/06/10 04:40:01;;;;;;;6.23;3.07;;;;;;;;;;4995736;28;20489;-58
2021/06/10 04:42:28;;;;;;;5.47;2.73;;;;;;;;;;4995591;28;20551;-58
2021/06/10 04:44:55;;;;;;;6.33;2.40;;;;;;;;;;4995655;28;20481;-58
2021/06/10 04:47:23;;;;;;;4.57;2.83;;;;;;;;;;4995730;28;20033;-58
2021/06/10 04:49:50;;;;;;;13.70;3.80;;;;;;;;;;4995735;28;20030;-58
2021/06/10 04:52:17;;;;;;;6.63;2.90;;;;;;;;;;4995740;28;20027;-58
2021/06/10 04:54:44;;;;;;;7.17;2.90;;;;;;;;;;4995717;28;20492;-58
2021/06/10 04:57:11;;;;;;;7.23;3.10;;;;;;;;;;4997242;28;20518;-58
2021/06/10 04:59:38;;;;;;;7.57;3.10;;;;;;;;;;4995349;28;20462;-58
2021/06/10 05:02:06;;;;;;;7.93;3.13;;;;;;;;;;4994586;28;20600;-58
2021/06/10 05:04:33;;;;;;;6.23;2.57;;;;;;;;;;4995252;28;20073;-58
2021/06/10 05:07:00;;;;;;;8.97;2.40;;;;;;;;;;4995597;28;20026;-58
2021/06/10 05:09:27;;;;;;;4.30;2.80;;;;;;;;;;4995282;28;20462;-58
2021/06/10 05:11:54;;;;;;;8.40;2.93;;;;;;;;;;4995532;28;20466;-58
2021/06/10 05:14:22;;;;;;;4.80;3.17;;;;;;;;;;4995020;28;20520;-58
2021/06/10 05:16:50;;;;;;;8.63;3.67;;;;;;;;;;4994023;28;20106;-58
2021/06/10 05:19:17;;;;;;;4.97;3.17;;;;;;;;;;4994996;28;20465;-58
2021/06/10 05:21:45;;;;;;;4.23;2.83;;;;;;;;;;4995090;28;20473;-58
2021/06/10 05:24:13;;;;;;;4.93;2.80;;;;;;;;;;4995008;28;20500;-58
2021/06/10 05:26:41;;;;;;;10.53;3.40;;;;;;;;;;4994843;28;20458;-58
2021/06/10 05:29:08;;;;;;;6.57;2.67;;;;;;;;;;4994726;28;20105;-58
2021/06/10 05:31:35;;;;;;;5.80;2.63;;;;;;;;;;4994797;28;20473;-58
2021/06/10 05:34:03;;;;;;;6.67;2.70;;;;;;;;;;4994715;28;20488;-58
2021/06/10 05:36:30;;;;;;;6.70;2.70;;;;;;;;;;4994532;28;20496;-58
2021/06/10 05:38:57;;;;;;;6.13;3.20;;;;;;;;;;4994610;28;20034;-58
2021/06/10 05:41:25;;;;;;;6.93;3.03;;;;;;;;;;4994674;28;20038;-58
2021/06/10 05:43:53;;;;;;;9.50;3.40;;;;;;;;;;4994593;28;20461;-58
2021/06/10 05:46:20;;;;;;;5.97;3.20;;;;;;;;;;4994431;28;20492;-58
2021/06/10 05:48:48;;;;;;;7.33;3.20;;;;;;;;;;4994429;28;20474;-58
2021/06/10 05:51:16;;;;;;;6.23;3.47;;;;;;;;;;4994366;28;20504;-58
2021/06/10 05:53:43;;;;;;;6.57;3.73;;;;;;;;;;4994293;28;20049;-58
2021/06/10 05:56:12;;;;;;;7.13;3.80;;;;;;;;;;4995968;28;20458;-59
2021/06/10 05:58:39;;;;;;;7.23;3.80;;;;;;;;;;4993839;28;20494;-58
2021/06/10 06:01:06;;;;;;;5.70;3.50;;;;;;;;;;4994414;28;20485;-58
2021/06/10 06:03:33;;;;;;;7.47;3.37;;;;;;;;;;4994068;28;20499;-58
2021/06/10 06:06:01;;;;;;;7.17;3.83;;;;;;;;;;4994093;28;20474;-58
2021/06/10 06:08:28;;;;;;;9.67;3.50;;;;;;;;;;4976791;28;20077;-58
2021/06/10 06:10:56;;;;;;;7.30;3.40;;;;;;;;;;4994089;28;20478;-58
2021/06/10 06:13:34;;;;;;;9.87;3.73;;;;;;;;;;4994089;28;20496;-58
2021/06/10 06:16:04;;;;;;;8.07;3.80;;;;;;;;;;4994260;28;20064;-58
2021/06/10 06:18:31;;;;;;;7.30;4.03;;;;;;;;;;4993982;28;20500;-58
2021/06/10 06:20:58;;;;;;;5.60;3.80;;;;;;;;;;4993811;28;20031;-58
2021/06/10 06:23:26;;;;;;;5.77;3.80;;;;;;;;;;4992938;28;20089;-58
2021/06/10 06:25:53;;;;;;;9.30;3.87;;;;;;;;;;4993743;28;20485;-58
2021/06/10 06:28:20;;;;;;;8.27;3.70;;;;;;;;;;4993906;28;20029;-58
2021/06/10 06:30:47;;;;;;;8.27;3.77;;;;;;;;;;4993901;28;20462;-58
2021/06/10 06:33:14;;;;;;;8.50;3.53;;;;;;;;;;4993657;28;20034;-58
2021/06/10 06:35:43;;;;;;;6.03;3.73;;;;;;;;;;4993554;28;20493;-58
2021/06/10 06:38:10;;;;;;;9.80;4.00;;;;;;;;;;4993703;28;20496;-58
2021/06/10 06:40:38;;;;;;;8.00;4.30;;;;;;;;;;4993637;28;20454;-58
2021/06/10 06:43:11;;;;;;;8.50;4.20;;;;;;;;;;4993514;28;20481;-58
2021/06/10 06:45:39;;;;;;;8.67;4.13;;;;;;;;;;4993236;28;20489;-58
2021/06/10 06:48:21;;;;;;;8.00;4.30;;;;;;;;;;4993757;28;20058;-58
2021/06/10 06:50:48;;;;;;;8.33;4.40;;;;;;;;;;4992048;28;20541;-58
2021/06/10 06:53:16;;;;;;;6.30;3.90;;;;;;;;;;4993684;28;20034;-58
2021/06/10 06:55:44;;;;;;;11.13;4.07;;;;;;;;;;4993179;28;20493;-58
2021/06/10 06:58:11;;;;;;;7.47;3.77;;;;;;;;;;4995085;28;20582;-58
2021/06/10 07:00:38;;;;;;;5.00;3.27;;;;;;;;;;4993554;28;20050;-58
2021/06/10 07:03:06;;;;;;;6.07;3.73;;;;;;;;;;4993045;28;20057;-58
2021/06/10 07:05:34;;;;;;;10.33;5.00;;;;;;;;;;4993327;28;20015;-58
2021/06/10 07:08:01;;;;;;;7.63;4.97;;;;;;;;;;4993263;28;20470;-58
2021/06/10 07:10:28;;;;;;;12.87;5.37;;;;;;;;;;4993289;28;20557;-58
2021/06/10 07:12:57;;;;;;;8.10;5.07;;;;;;;;;;4993214;28;20466;-57
2021/06/10 07:15:24;;;;;;;10.33;4.63;;;;;;;;;;4993239;28;20026;-58
2021/06/10 07:17:52;;;;;;;9.30;5.00;;;;;;;;;;4993279;28;20026;-58
2021/06/10 07:20:19;;;;;;;9.17;4.47;;;;;;;;;;4993273;28;20487;-58
2021/06/10 07:22:47;;;;;;;27.77;5.73;;;;;;;;;;4993133;28;20580;-58
2021/06/10 07:25:14;;;;;;;22.57;5.83;;;;;;;;;;4992654;28;20053;-58
2021/06/10 07:27:43;;;;;;;5.53;3.67;;;;;;;;;;4993000;28;20465;-58
2021/06/10 07:30:10;;;;;;;9.27;4.00;;;;;;;;;;4992862;28;20397;-57
2021/06/10 07:32:38;;;;;;;9.50;4.40;;;;;;;;;;4993023;28;20633;-58
2021/06/10 07:35:05;;;;;;;8.43;4.33;;;;;;;;;;4992970;28;20489;-58
2021/06/10 07:37:33;;;;;;;6.57;4.43;;;;;;;;;;4992959;28;20496;-58
2021/06/10 07:40:00;;;;;;;7.63;4.50;;;;;;;;;;4993693;28;20458;-58
2021/06/10 07:42:27;;;;;;;6.23;4.00;;;;;;;;;;4997049;28;20469;-58
2021/06/10 07:44:54;;;;;;;6.53;4.27;;;;;;;;;;4996037;28;20089;-58
2021/06/10 07:47:23;;;;;;;6.67;4.50;;;;;;;;;;4996969;28;20029;-58
2021/06/10 07:49:50;;;;;;;6.90;4.07;;;;;;;;;;4996655;28;20473;-58
2021/06/10 07:52:19;;;;;;;9.70;3.83;;;;;;;;;;4996674;28;20489;-58
2021/06/10 07:54:46;;;;;;;7.87;4.10;;;;;;;;;;4996377;28;20485;-58
2021/06/10 07:57:13;;;;;;;4.93;3.47;;;;;;;;;;4998217;28;20541;-58
2021/06/10 07:59:40;;;;;;;6.23;3.60;;;;;;;;;;4979462;28;20094;-58
2021/06/10 08:02:09;;;;;;;7.27;4.10;;;;;;;;;;4996435;28;20540;-58
2021/06/10 08:04:36;;;;;;;13.13;4.37;;;;;;;;;;4978960;28;20528;-58
2021/06/10 08:07:04;;;;;;;10.27;6.20;;;;;;;;;;4996736;28;20058;-58
2021/06/10 08:09:32;;;;;;;7.90;4.97;;;;;;;;;;4996640;28;20540;-58
2021/06/10 08:12:01;;;;;;;8.87;4.73;;;;;;;;;;4996529;28;20466;-58
2021/06/10 08:14:29;;;;;;;6.90;4.87;;;;;;;;;;4996253;28;20481;-58
2021/06/10 08:16:56;;;;;;;13.30;6.90;;;;;;;;;;4996254;28;20489;-57
2021/06/10 08:19:24;;;;;;;14.17;7.63;;;;;;;;;;4996157;28;20548;-58
2021/06/10 08:21:51;;;;;;;14.20;6.33;;;;;;;;;;4996430;28;20049;-58
2021/06/10 08:24:18;;;;;;;8.27;5.50;;;;;;;;;;4996288;28;20536;-57
2021/06/10 08:26:52;;;;;;;6.90;5.07;;;;;;;;;;4995941;28;20466;-58
2021/06/10 08:29:19;;;;;;;10.40;5.70;;;;;;;;;;4978039;28;20042;-58
2021/06/10 08:31:47;;;;;;;11.77;5.20;;;;;;;;;;4996060;28;20042;-58
2021/06/10 08:34:14;;;;;;;9.73;5.83;;;;;;;;;;4995682;28;20470;-58
2021/06/10 08:36:42;;;;;;;9.83;5.90;;;;;;;;;;4995822;28;20548;-57
2021/06/10 08:39:09;;;;;;;8.90;6.10;;;;;;;;;;4995858;28;20469;-57
2021/06/10 08:41:37;;;;;;;11.43;5.70;;;;;;;;;;4995852;28;20031;-57
2021/06/10 08:44:05;;;;;;;8.37;4.80;;;;;;;;;;4995953;28;20466;-58
2021/06/10 08:46:35;;;;;;;9.03;5.47;;;;;;;;;;4995561;28;20034;-58
2021/06/10 08:49:05;;;;;;;8.00;5.90;;;;;;;;;;4995420;28;20035;-58
2021/06/10 08:51:32;;;;;;;8.57;5.33;;;;;;;;;;4994394;28;20500;-57
2021/06/10 08:53:59;;;;;;;7.33;5.70;;;;;;;;;;4995529;28;20030;-58
2021/06/10 08:56:32;;;;;;;11.17;6.33;;;;;;;;;;4997076;28;20541;-58
2021/06/10 08:58:59;;;;;;;8.47;5.50;;;;;;;;;;4995406;28;20485;-58
2021/06/10 09:01:28;;;;;;;8.40;5.67;;;;;;;;;;4995496;28;20070;-58
2021/06/10 09:03:55;;;;;;;7.37;5.33;;;;;;;;;;4995373;28;20477;-58
2021/06/10 09:06:23;;;;;;;8.03;5.43;;;;;;;;;;4995275;28;20477;-58
2021/06/10 09:08:56;;;;;;;6.40;4.63;;;;;;;;;;4995325;28;20495;-57
2021/06/10 09:11:24;;;;;;;8.73;5.30;;;;;;;;;;4995222;28;20563;-57
2021/06/10 09:13:58;;;;;;;8.47;5.70;;;;;;;;;;4995152;28;20034;-57
2021/06/10 09:16:38;;;;;;;10.50;5.37;;;;;;;;;;4995419;28;20508;-57
2021/06/10 09:19:13;;;;;;;7.83;5.27;;;;;;;;;;4995118;28;20481;-57
2021/06/10 09:21:42;;;;;;;9.27;5.60;;;;;;;;;;4978966;28;20114;-57
2021/06/10 09:24:23;;;;;;;6.93;5.10;;;;;;;;;;4995026;28;20487;-57
2021/06/10 09:27:05;;;;;;;7.40;5.00;;;;;;;;;;4994934;28;20520;-57
2021/06/10 09:29:40;;;;;;;9.30;5.80;;;;;;;;;;4994913;28;20495;-58
2021/06/10 09:32:11;;;;;;;7.60;5.47;;;;;;;;;;4994842;28;20101;-58
2021/06/10 09:34:42;;;;;;;10.23;5.83;;;;;;;;;;4994603;28;20035;-58
2021/06/10 09:37:11;;;;;;;7.63;5.07;;;;;;;;;;4994740;28;20492;-57
2021/06/10 09:39:54;;;;;;;7.30;4.63;;;;;;;;;;4994667;28;20489;-58
2021/06/10 09:42:35;;;;;;;6.83;4.67;;;;;;;;;;4994638;28;20512;-57
2021/06/10 09:45:14;;;;;;;6.60;5.00;;;;;;;;;;4994555;28;20540;-58
2021/06/10 09:47:46;;;;;;;9.63;5.23;;;;;;;;;;4994531;28;20557;-57
2021/06/10 09:50:19;;;;;;;9.27;5.93;;;;;;;;;;4994495;28;20026;-58
2021/06/10 09:52:47;;;;;;;8.30;5.13;;;;;;;;;;4994378;28;20512;-58
2021/06/10 09:55:26;;;;;;;13.50;5.33;;;;;;;;;;4994348;28;20030;-58
2021/06/10 09:57:55;;;;;;;8.10;5.83;;;;;;;;;;4995973;28;20521;-58
2021/06/10 10:00:28;;;;;;;10.17;6.13;;;;;;;;;;4994400;28;20074;-58
2021/06/10 10:02:55;;;;;;;9.60;6.33;;;;;;;;;;4993954;28;20541;-58
2021/06/10 10:05:25;;;;;;;8.27;5.07;;;;;;;;;;4994218;28;20585;-58
2021/06/10 10:07:53;;;;;;;9.83;4.97;;;;;;;;;;4994296;28;20022;-58
2021/06/10 10:10:22;;;;;;;11.23;6.07;;;;;;;;;;4994067;28;20089;-58
2021/06/10 10:12:51;;;;;;;9.33;5.83;;;;;;;;;;4993411;28;20497;-58
2021/06/10 10:15:19;;;;;;;8.20;4.97;;;;;;;;;;4994382;28;20481;-58
2021/06/10 10:17:49;;;;;;;13.27;5.20;;;;;;;;;;4994141;28;20642;-58
2021/06/10 10:20:18;;;;;;;10.03;5.03;;;;;;;;;;4993143;28;20066;-58
2021/06/10 10:22:46;;;;;;;10.10;6.63;;;;;;;;;;4993040;28;20516;-58
2021/06/10 10:25:14;;;;;;;11.77;5.93;;;;;;;;;;4993867;28;20466;-58
2021/06/10 10:27:41;;;;;;;6.70;4.83;;;;;;;;;;4994267;28;20525;-58
2021/06/10 10:30:09;;;;;;;9.60;5.80;;;;;;;;;;4993791;28;20026;-58
2021/06/10 10:32:38;;;;;;;8.13;5.33;;;;;;;;;;4992763;28;20516;-58
2021/06/10 10:35:23;;;;;;;7.43;5.10;;;;;;;;;;4993722;28;20042;-58
2021/06/10 10:37:54;;;;;;;8.68;5.45;;;;;;;;;;4993808;28;20089;-58
2021/06/10 10:40:30;;;;;;;7.40;5.50;;;;;;;;;;4993784;28;20478;-58
2021/06/10 10:43:10;;;;;;;8.10;5.37;;;;;;;;;;4993797;28;20479;-58
2021/06/10 10:45:43;;;;;;;12.47;5.53;;;;;;;;;;4993453;28;20026;-58
2021/06/10 10:48:12;;;;;;;13.63;6.67;;;;;;;;;;4993446;28;20109;-58
2021/06/10 10:50:47;;;;;;;8.20;4.80;;;;;;;;;;4993678;28;20022;-58
2021/06/10 10:53:21;;;;;;;8.50;4.83;;;;;;;;;;4993217;28;20039;-58
2021/06/10 10:56:00;;;;;;;7.90;4.43;;;;;;;;;;4993362;28;20033;-58
2021/06/10 10:58:27;;;;;;;7.67;4.93;;;;;;;;;;4995104;28;20549;-58
2021/06/10 11:00:56;;;;;;;9.43;5.07;;;;;;;;;;4993340;28;20585;-58
2021/06/10 11:03:36;;;;;;;9.53;5.60;;;;;;;;;;4992453;28;20040;-58
2021/06/10 11:06:22;;;;;;;8.33;5.23;;;;;;;;;;4993378;28;20038;-58
2021/06/10 11:09:12;;;;;;;9.67;4.97;;;;;;;;;;4993287;28;20496;-58
2021/06/10 11:11:51;;;;;;;10.17;5.63;;;;;;;;;;4993349;28;20041;-58
2021/06/10 11:14:37;;;;;;;13.27;7.10;;;;;;;;;;4993415;28;20553;-58
2021/06/10 11:17:22;;;;;;;8.57;5.25;;;;;;;;;;4997640;28;20485;-58
2021/06/10 11:19:50;;;;;;;10.07;4.93;;;;;;;;;;4997329;28;20485;-58
2021/06/10 11:22:41;;;;;;;11.93;5.93;;;;;;;;;;4997478;28;20473;-58
2021/06/10 11:25:10;;;;;;;8.90;5.23;;;;;;;;;;4985283;28;20486;-58
2021/06/10 11:27:48;;;;;;;8.37;4.77;;;;;;;;;;4997104;28;20488;-58
2021/06/10 11:30:26;;;;;;;11.83;5.93;;;;;;;;;;4996928;28;20384;-58
2021/06/10 11:33:22;;;;;;;11.50;5.90;;;;;;;;;;4997017;28;20489;-58
2021/06/10 11:35:50;;;;;;;12.03;5.73;;;;;;;;;;4976620;28;20486;-58
2021/06/10 11:38:24;;;;;;;9.07;5.50;;;;;;;;;;4997153;28;20113;-58
2021/06/10 11:40:57;;;;;;;15.57;6.17;;;;;;;;;;4996974;28;20065;-58
2021/06/10 11:43:25;;;;;;;10.00;4.87;;;;;;;;;;4996923;28;20504;-58
2021/06/10 11:45:59;;;;;;;7.57;5.37;;;;;;;;;;4996731;28;20077;-58
2021/06/10 11:48:42;;;;;;;10.97;6.27;;;;;;;;;;4997061;28;20524;-58
2021/06/10 11:51:10;;;;;;;11.13;5.83;;;;;;;;;;4996649;28;20027;-58
2021/06/10 11:53:37;;;;;;;10.20;6.50;;;;;;;;;;4996493;28;20050;-58
2021/06/10 11:56:04;;;;;;;12.10;7.80;;;;;;;;;;4996696;28;20470;-58
2021/06/10 11:58:32;;;;;;;14.47;8.20;;;;;;;;;;4998391;28;20568;-58
2021/06/10 12:01:05;;;;;;;15.47;7.63;;;;;;;;;;4996462;28;20513;-58
2021/06/10 12:03:38;;;;;;;11.23;6.97;;;;;;;;;;4996476;28;20489;-58
2021/06/10 12:06:08;;;;;;;16.53;10.07;;;;;;;;;;4996367;28;20477;-58
2021/06/10 12:08:36;;;;;;;22.67;11.73;;;;;;;;;;4996283;28;20501;-58
2021/06/10 12:11:06;;;;;;;21.80;13.07;;;;;;;;;;4996375;28;20482;-58
2021/06/10 12:13:35;;;;;;;21.77;12.97;;;;;;;;;;4996266;28;20553;-58
2021/06/10 12:16:04;;;;;;;22.23;12.47;;;;;;;;;;4996146;28;20477;-57
2021/06/10 12:18:31;;;;;;;19.47;12.37;;;;;;;;;;4996386;28;20069;-57
2021/06/10 12:21:00;;;;;;;17.27;11.27;;;;;;;;;;4996147;28;20519;-58
2021/06/10 12:23:29;;;;;;;17.53;10.13;;;;;;;;;;4996375;28;20589;-57
2021/06/10 12:25:57;;;;;;;13.50;8.80;;;;;;;;;;4995805;28;20516;-57
2021/06/10 12:28:29;;;;;;;12.70;8.07;;;;;;;;;;4996307;28;20517;-57
2021/06/10 12:44:28;;;;;;;13.30;8.47;;;;;;;;;;5917033;22;7248515;-52
2021/06/10 12:46:56;;;;;;;12.40;7.80;;;;;;;;;;6224015;23;20005;-51
2021/06/10 12:49:26;;;;;;;13.63;9.13;;;;;;;;;;6223981;23;20019;-51
2021/06/10 12:51:54;;;;;;;12.10;7.10;;;;;;;;;;6223844;23;20044;-51
2021/06/10 12:54:30;;;;;;;12.43;8.00;;;;;;;;;;6224141;23;20000;-51
2021/06/10 12:56:57;;;;;;;16.97;8.40;;;;;;;;;;6223858;23;20008;-52
2021/06/10 12:59:24;;;;;;;17.17;8.37;;;;;;;;;;6224013;23;20000;-52
2021/06/10 13:02:00;;;;;;;11.20;7.60;;;;;;;;;;6224009;23;20000;-52
2021/06/10 13:04:27;;;;;;;17.93;7.60;;;;;;;;;;6223791;23;20008;-52
2021/06/10 13:06:53;;;;;;;12.53;7.90;;;;;;;;;;6223769;23;20062;-52
2021/06/10 13:09:24;;;;;;;14.20;9.47;;;;;;;;;;6223904;23;20435;-52
2021/06/10 13:12:09;;;;;;;14.93;9.50;;;;;;;;;;6223699;23;20011;-52
2021/06/10 13:14:36;;;;;;;15.52;9.75;;;;;;;;;;6223684;23;20005;-52
2021/06/10 13:17:03;;;;;;;15.83;9.80;;;;;;;;;;6223644;23;20012;-52
2021/06/10 13:19:30;;;;;;;12.73;8.40;;;;;;;;;;6223794;23;20003;-52
2021/06/10 13:22:07;;;;;;;13.93;8.53;;;;;;;;;;6223640;23;20114;-52
2021/06/10 13:24:44;;;;;;;13.47;9.00;;;;;;;;;;6223560;23;20319;-52
2021/06/10 13:27:24;;;;;;;15.87;10.23;;;;;;;;;;6223601;23;20001;-52
2021/06/10 13:29:52;;;;;;;14.83;10.73;;;;;;;;;;6223583;23;20012;-52
2021/06/10 13:32:37;;;;;;;18.73;10.73;;;;;;;;;;6223653;23;20019;-52
2021/06/10 13:37:31;;;;;;;16.37;10.07;;;;;;;;;;6224609;23;20086;-52
2021/06/10 13:39:58;;;;;;;13.10;8.83;;;;;;;;;;6223682;23;19996;-52
2021/06/10 13:42:27;;;;;;;12.93;9.40;;;;;;;;;;6223224;22;20096;-52
2021/06/10 13:44:54;;;;;;;12.97;9.33;;;;;;;;;;6216496;23;20070;-52
2021/06/10 13:47:21;;;;;;;13.37;9.00;;;;;;;;;;6216849;23;20091;-52
2021/06/10 13:49:48;;;;;;;15.93;10.10;;;;;;;;;;6216637;23;20000;-52
2021/06/10 13:52:16;;;;;;;14.53;9.73;;;;;;;;;;6216646;23;20348;-52
2021/06/10 13:54:43;;;;;;;16.23;11.37;;;;;;;;;;6216534;23;20005;-52
2021/06/10 13:57:11;;;;;;;15.07;9.60;;;;;;;;;;6216619;23;20066;-53
2021/06/10 13:59:39;;;;;;;14.67;8.70;;;;;;;;;;6216796;23;19996;-52
2021/06/10 14:02:06;;;;;;;12.53;7.07;;;;;;;;;;6217095;23;20007;-52
2021/06/10 14:04:32;;;;;;;15.93;7.10;;;;;;;;;;6216769;23;20032;-52
2021/06/10 14:07:01;;;;;;;16.57;8.97;;;;;;;;;;6216693;23;20001;-52
2021/06/10 14:09:27;;;;;;;13.63;8.40;;;;;;;;;;6216705;23;20004;-52
2021/06/10 14:11:54;;;;;;;10.87;7.77;;;;;;;;;;6216667;23;20088;-52
2021/06/10 14:14:22;;;;;;;12.50;8.47;;;;;;;;;;6216622;23;20031;-52
2021/06/10 14:17:05;;;;;;;15.77;9.87;;;;;;;;;;6214873;23;20031;-52
2021/06/10 14:19:32;;;;;;;13.63;8.10;;;;;;;;;;6216479;23;20043;-52
2021/06/10 14:22:00;;;;;;;18.53;8.77;;;;;;;;;;6216027;23;20015;-52
2021/06/10 14:24:29;;;;;;;16.07;8.13;;;;;;;;;;6216323;23;20156;-52
2021/06/10 14:27:09;;;;;;;18.20;11.10;;;;;;;;;;6216549;23;20012;-52
2021/06/10 14:29:46;;;;;;;9.83;7.10;;;;;;;;;;6216452;23;20075;-52
2021/06/10 14:32:21;;;;;;;13.13;7.40;;;;;;;;;;6216403;23;20020;-52
2021/06/10 14:35:00;;;;;;;10.75;6.68;;;;;;;;;;6216208;23;20024;-52
2021/06/10 14:37:28;;;;;;;9.90;6.70;;;;;;;;;;6216465;23;20079;-52
2021/06/10 14:40:01;;;;;;;9.00;6.73;;;;;;;;;;6215800;23;20001;-52
2021/06/10 14:42:38;;;;;;;11.80;8.07;;;;;;;;;;6214795;22;20091;-52
2021/06/10 14:45:10;;;;;;;11.10;7.40;;;;;;;;;;6215868;23;20084;-52
2021/06/10 14:47:42;;;;;;;11.17;7.73;;;;;;;;;;6216132;23;20373;-52
2021/06/10 14:50:16;;;;;;;9.27;6.53;;;;;;;;;;6216136;23;20419;-52
2021/06/10 14:52:45;;;;;;;9.95;6.47;;;;;;;;;;6216081;23;20063;-51
2021/06/10 14:55:13;;;;;;;7.47;5.33;;;;;;;;;;6215472;23;20005;-52
2021/06/10 14:57:40;;;;;;;10.57;6.27;;;;;;;;;;6216049;23;20072;-52
2021/06/10 15:00:13;;;;;;;12.53;6.17;;;;;;;;;;6210305;23;20001;-52
2021/06/10 15:02:39;;;;;;;10.30;4.60;;;;;;;;;;6216052;23;20008;-52
2021/06/10 15:05:16;;;;;;;8.70;5.27;;;;;;;;;;6215900;23;20008;-52
2021/06/10 15:07:49;;;;;;;13.03;5.17;;;;;;;;;;6214623;23;20008;-52
2021/06/10 15:10:18;;;;;;;9.07;5.87;;;;;;;;;;6215887;23;20412;-51